Time;durP1;ratioP1;P1;durP2;ratioP2;P2;SDS_P1;SDS_P2;PMS_P1;PMS_P2;Temp;Humidity;BMP_temperature;BMP_pressure;BME280_temperature;BME280_humidity;BME280_pressure;Samples;Min_cycle;Max_cycle;Signal;HPM_P1;HPM_P2
2024/04/05 00:01:03;;;;;;;7.10;3.55;;;;;;;12.76;70.24;100302.91;5047197;28;20017;-80
2024/04/05 00:03:29;;;;;;;6.85;3.53;;;;;;;13.01;70.73;100307.28;5040901;28;20029;-81
2024/04/05 00:05:54;;;;;;;7.40;3.40;;;;;;;13.04;70.67;100320.22;5047134;28;20129;-80
2024/04/05 00:08:24;;;;;;;6.43;3.53;;;;;;;13.03;70.86;100313.22;5044246;28;20040;-80
2024/04/05 00:10:50;;;;;;;7.43;3.90;;;;;;;13.11;69.75;100326.28;5046786;28;20017;-80
2024/04/05 00:13:15;;;;;;;6.97;3.85;;;;;;;13.02;68.46;100311.59;5045628;28;20099;-80
2024/04/05 00:15:40;;;;;;;9.00;4.38;;;;;;;13.11;68.10;100336.97;5043386;28;20021;-80
2024/04/05 00:18:06;;;;;;;7.95;3.58;;;;;;;12.77;68.74;100317.09;5046939;28;20440;-81
2024/04/05 00:20:31;;;;;;;7.07;3.70;;;;;;;12.70;68.13;100325.22;5046588;28;20025;-80
2024/04/05 00:22:57;;;;;;;12.00;3.80;;;;;;;12.72;67.30;100309.75;5046241;28;20056;-80
2024/04/05 00:25:23;;;;;;;7.82;3.55;;;;;;;12.76;67.16;100323.50;5045419;28;20031;-80
2024/04/05 00:27:48;;;;;;;8.00;3.42;;;;;;;12.81;66.39;100307.56;5044161;28;20041;-80
2024/04/05 00:30:14;;;;;;;7.63;3.28;;;;;;;12.80;64.71;100298.72;5046922;28;20037;-80
2024/04/05 00:32:40;;;;;;;5.55;3.20;;;;;;;12.84;63.50;100321.31;5047049;28;20036;-80
2024/04/05 00:35:06;;;;;;;5.57;2.80;;;;;;;13.07;62.39;100311.72;5047430;28;20083;-80
2024/04/05 00:37:31;;;;;;;6.70;2.90;;;;;;;13.18;59.51;100310.94;5047220;28;20032;-80
2024/04/05 00:39:57;;;;;;;7.68;3.17;;;;;;;13.19;59.27;100317.91;5045413;28;20033;-81
2024/04/05 00:42:22;;;;;;;7.05;3.60;;;;;;;13.12;59.76;100309.19;5055000;28;20024;-80
2024/04/05 00:44:47;;;;;;;7.43;3.20;;;;;;;13.10;60.08;100291.69;5067461;28;20029;-80
2024/04/05 00:47:13;;;;;;;6.22;3.00;;;;;;;13.29;59.84;100322.75;5051425;28;20063;-80
2024/04/05 00:49:39;;;;;;;5.53;3.28;;;;;;;13.36;60.26;100328.81;5046239;28;20121;-80
2024/04/05 00:52:05;;;;;;;6.22;3.30;;;;;;;13.06;60.47;100304.75;5051946;28;20067;-80
2024/04/05 00:54:31;;;;;;;111.32;12.90;;;;;;;13.01;61.19;100302.72;5068360;28;20027;-80
2024/04/05 00:56:57;;;;;;;9.98;3.40;;;;;;;13.04;62.16;100329.06;5058529;28;20060;-80
2024/04/05 00:59:26;;;;;;;6.70;3.75;;;;;;;12.86;61.89;100300.47;5054706;28;20082;-80
2024/04/05 01:01:51;;;;;;;7.80;3.53;;;;;;;12.75;62.37;100306.63;5053876;28;20115;-80
2024/04/05 01:04:17;;;;;;;6.45;4.05;;;;;;;12.79;62.21;100310.47;5050004;28;20456;-80
2024/04/05 01:06:43;;;;;;;9.05;3.72;;;;;;;12.84;61.68;100313.28;5051434;28;20068;-80
2024/04/05 01:09:08;;;;;;;7.72;3.55;;;;;;;12.81;60.48;100300.38;5050483;28;20489;-80
2024/04/05 01:11:34;;;;;;;6.50;3.42;;;;;;;12.99;60.19;100330.78;5051381;28;20029;-81
2024/04/05 01:13:59;;;;;;;10.40;3.60;;;;;;;12.79;61.51;100309.66;5067278;28;20032;-81
2024/04/05 01:16:26;;;;;;;9.10;3.50;;;;;;;12.84;60.72;100332.00;5070834;28;20036;-80
2024/04/05 01:18:56;;;;;;;7.38;3.38;;;;;;;12.91;60.60;100339.13;5059663;28;20555;-80
2024/04/05 01:21:22;;;;;;;6.93;3.65;;;;;;;12.57;61.73;100320.03;5060941;28;20595;-80
2024/04/05 01:23:49;;;;;;;9.00;4.65;;;;;;;12.60;62.76;100340.97;5071966;28;20036;-80
2024/04/05 01:26:14;;;;;;;9.55;3.80;;;;;;;12.78;62.81;100343.63;5062430;28;20021;-80
2024/04/05 01:28:40;;;;;;;7.38;3.72;;;;;;;12.38;63.24;100333.44;5039767;28;20036;-80
2024/04/05 01:31:05;;;;;;;8.60;3.78;;;;;;;12.32;63.38;100322.81;5072901;28;20096;-80
2024/04/05 01:33:31;;;;;;;8.60;3.85;;;;;;;12.45;63.35;100328.00;5077399;28;20036;-80
2024/04/05 01:35:56;;;;;;;5.85;3.70;;;;;;;12.43;64.38;100333.56;5067615;28;20708;-80
2024/04/05 01:38:21;;;;;;;5.72;3.70;;;;;;;11.68;65.45;100332.91;5057785;28;20032;-80
2024/04/05 01:40:47;;;;;;;6.15;3.40;;;;;;;11.67;67.73;100310.72;5054945;28;20505;-79
2024/04/05 01:43:12;;;;;;;7.22;3.63;;;;;;;12.01;66.33;100351.31;5056226;28;20032;-80
2024/04/05 01:45:38;;;;;;;7.45;3.63;;;;;;;11.58;66.82;100336.06;5058291;28;20068;-80
2024/04/05 01:48:04;;;;;;;7.88;4.07;;;;;;;11.57;67.03;100311.22;5057720;28;20040;-80
2024/04/05 01:50:30;;;;;;;7.35;3.78;;;;;;;11.45;67.59;100329.00;5055342;28;20033;-79
2024/04/05 01:52:55;;;;;;;8.75;4.28;;;;;;;11.82;66.44;100339.75;5047019;28;20029;-80
2024/04/05 01:55:20;;;;;;;6.63;3.60;;;;;;;11.74;65.30;100324.81;5057221;28;20029;-79
2024/04/05 01:57:46;;;;;;;7.80;3.47;;;;;;;11.66;66.46;100341.13;5065481;28;20086;-79
2024/04/05 02:00:12;;;;;;;6.78;3.70;;;;;;;11.53;66.21;100335.91;5056589;28;20120;-79
2024/04/05 02:02:37;;;;;;;7.10;4.00;;;;;;;11.61;67.87;100341.78;5051406;28;20698;-80
2024/04/05 02:05:03;;;;;;;7.95;3.40;;;;;;;11.71;66.64;100345.81;5050767;28;20448;-79
2024/04/05 02:07:28;;;;;;;7.13;3.60;;;;;;;11.59;66.00;100345.72;5055750;28;20020;-78
2024/04/05 02:09:54;;;;;;;8.93;3.72;;;;;;;11.73;65.87;100343.75;5058759;28;20082;-79
2024/04/05 02:12:22;;;;;;;5.85;3.25;;;;;;;10.97;68.18;100343.72;5048877;28;20086;-79
2024/04/05 02:14:48;;;;;;;5.55;3.50;;;;;;;10.32;71.86;100335.81;5047953;28;20047;-79
2024/04/05 02:17:14;;;;;;;7.00;4.00;;;;;;;10.73;71.83;100344.47;5049786;28;20033;-79
2024/04/05 02:19:39;;;;;;;8.38;4.18;;;;;;;10.79;70.84;100319.59;5044592;28;20044;-80
2024/04/05 02:22:05;;;;;;;8.90;4.47;;;;;;;10.96;70.33;100357.25;5048907;28;20083;-80
2024/04/05 02:24:31;;;;;;;9.85;4.82;;;;;;;10.77;70.38;100341.16;5049620;28;20538;-82
2024/04/05 02:26:57;;;;;;;8.45;4.95;;;;;;;10.67;71.40;100335.47;5049083;28;20025;-80
2024/04/05 02:29:22;;;;;;;8.23;4.38;;;;;;;10.75;71.05;100345.88;5047369;28;20037;-79
2024/04/05 02:31:48;;;;;;;7.10;3.90;;;;;;;10.83;70.54;100352.81;5051984;28;20035;-79
2024/04/05 02:34:13;;;;;;;6.65;3.88;;;;;;;10.85;70.70;100340.91;5049086;28;20031;-80
2024/04/05 02:36:38;;;;;;;9.27;4.55;;;;;;;10.79;71.84;100368.44;5048866;28;20064;-79
2024/04/05 02:39:07;;;;;;;7.25;4.03;;;;;;;10.55;71.35;100313.16;5048964;28;20121;-80
2024/04/05 02:41:33;;;;;;;6.57;3.33;;;;;;;10.92;70.12;100346.19;5044728;28;20033;-80
2024/04/05 02:43:59;;;;;;;7.80;3.22;;;;;;;11.16;68.32;100378.50;5048309;28;20021;-79
2024/04/05 02:46:25;;;;;;;7.78;4.15;;;;;;;10.93;69.52;100349.66;5048528;28;20540;-79
2024/04/05 02:48:51;;;;;;;8.23;3.80;;;;;;;11.02;69.20;100375.09;5048967;28;20493;-79
2024/04/05 02:51:18;;;;;;;6.22;3.53;;;;;;;11.23;68.85;100369.41;5048540;28;20056;-79
2024/04/05 02:53:44;;;;;;;6.87;3.53;;;;;;;11.29;68.91;100361.56;5047380;28;20035;-80
2024/04/05 02:56:10;;;;;;;7.45;3.95;;;;;;;11.26;68.18;100368.16;5048590;28;20033;-80
2024/04/05 02:58:36;;;;;;;7.60;3.55;;;;;;;10.84;69.05;100383.78;5047042;28;20477;-80
2024/04/05 03:01:01;;;;;;;7.18;3.90;;;;;;;10.95;68.57;100376.97;5043692;28;20040;-80
2024/04/05 03:03:26;;;;;;;9.93;3.70;;;;;;;10.68;69.22;100336.25;5048052;28;20026;-79
2024/04/05 03:05:52;;;;;;;7.45;3.83;;;;;;;10.64;70.27;100341.19;5048215;28;20083;-80
2024/04/05 03:08:17;;;;;;;8.10;4.03;;;;;;;10.79;69.42;100384.44;5048224;28;20029;-80
2024/04/05 03:10:42;;;;;;;6.30;3.22;;;;;;;10.65;69.74;100382.84;5048213;28;20021;-79
2024/04/05 03:13:08;;;;;;;6.60;3.70;;;;;;;10.57;68.70;100391.09;5046608;28;20083;-79
2024/04/05 03:15:34;;;;;;;7.45;3.80;;;;;;;10.30;70.08;100343.19;5059712;28;20067;-79
2024/04/05 03:18:00;;;;;;;12.05;3.53;;;;;;;10.82;68.65;100405.34;5066165;28;20409;-78
2024/04/05 03:20:25;;;;;;;9.80;3.58;;;;;;;10.31;70.09;100403.47;5047569;28;20120;-79
2024/04/05 03:22:50;;;;;;;6.13;3.08;;;;;;;10.64;69.22;100400.72;5047603;28;20032;-80
2024/04/05 03:25:16;;;;;;;5.93;3.17;;;;;;;10.66;68.76;100397.81;5047193;28;20414;-80
2024/04/05 03:27:41;;;;;;;6.97;3.45;;;;;;;10.64;68.24;100403.38;5044330;28;20028;-80
2024/04/05 03:30:07;;;;;;;6.20;3.50;;;;;;;10.32;68.40;100378.47;5047787;28;20045;-80
2024/04/05 03:32:33;;;;;;;5.85;3.33;;;;;;;10.19;70.48;100405.09;5047731;28;20037;-79
2024/04/05 03:34:59;;;;;;;5.38;2.75;;;;;;;10.08;71.43;100400.41;5046093;28;20462;-79
2024/04/05 03:37:24;;;;;;;7.10;3.45;;;;;;;10.25;70.28;100405.06;5041091;28;20036;-80
2024/04/05 03:39:53;;;;;;;6.93;3.55;;;;;;;10.14;72.28;100403.06;5043257;28;20033;-79
2024/04/05 03:42:20;;;;;;;7.78;3.33;;;;;;;10.39;70.69;100416.56;5047647;28;20033;-79
2024/04/05 03:44:46;;;;;;;5.80;3.15;;;;;;;10.06;70.97;100389.97;5047464;28;20029;-80
2024/04/05 03:47:12;;;;;;;4.82;3.08;;;;;;;10.33;71.25;100417.41;5047192;28;20494;-80
2024/04/05 03:49:38;;;;;;;5.70;3.22;;;;;;;10.01;71.35;100403.91;5048012;28;20048;-80
2024/04/05 03:52:03;;;;;;;6.25;3.47;;;;;;;9.87;72.57;100428.91;5047010;28;20029;-79
2024/04/05 03:54:29;;;;;;;5.35;3.20;;;;;;;9.63;73.87;100425.81;5047676;28;20029;-80
2024/04/05 03:56:54;;;;;;;7.57;3.17;;;;;;;8.90;78.40;100433.63;5047603;28;20064;-79
2024/04/05 03:59:19;;;;;;;10.65;3.95;;;;;;;8.30;82.43;100420.03;5047399;28;20109;-80
2024/04/05 04:01:45;;;;;;;8.57;4.00;;;;;;;8.29;84.81;100444.94;5045990;28;20025;-79
2024/04/05 04:04:10;;;;;;;10.02;4.57;;;;;;;8.67;83.95;100443.78;5047099;28;20040;-79
2024/04/05 04:06:36;;;;;;;9.60;4.50;;;;;;;8.85;82.00;100417.47;5040970;28;20044;-80
2024/04/05 04:09:01;;;;;;;41.38;6.45;;;;;;;8.72;82.62;100442.13;5032800;28;20072;-80
2024/04/05 04:11:26;;;;;;;12.23;4.90;;;;;;;8.90;82.77;100454.09;5041916;28;20029;-80
2024/04/05 04:13:52;;;;;;;10.98;4.82;;;;;;;8.29;87.51;100447.59;5046241;28;20032;-80
2024/04/05 04:16:18;;;;;;;7.65;4.28;;;;;;;8.28;89.41;100445.97;5047121;28;20033;-80
2024/04/05 04:18:46;;;;;;;13.68;4.82;;;;;;;8.65;87.72;100473.22;5047521;28;20021;-79
2024/04/05 04:21:12;;;;;;;12.55;5.03;;;;;;;8.71;87.38;100461.78;5047339;28;20033;-80
2024/04/05 04:23:38;;;;;;;10.07;5.30;;;;;;;8.83;85.31;100454.88;5045916;28;20098;-80
2024/04/05 04:26:05;;;;;;;10.43;4.50;;;;;;;9.18;82.34;100432.72;5046695;28;20033;-80
2024/04/05 04:28:32;;;;;;;11.88;5.15;;;;;;;9.49;80.49;100442.81;5049618;28;20491;-80
2024/04/05 04:31:15;;;;;;;11.07;6.07;;;;;;;9.67;78.19;100441.41;5048962;28;20057;-80
2024/04/05 04:33:40;;;;;;;11.77;4.53;;;;;;;10.12;76.17;100449.59;5051044;28;20099;-80
2024/04/05 04:36:06;;;;;;;10.70;3.97;;;;;;;10.27;75.63;100467.00;5050902;28;20041;-80
2024/04/05 04:38:32;;;;;;;11.32;4.93;;;;;;;9.94;75.72;100434.25;5034130;28;20398;-81
2024/04/05 04:40:57;;;;;;;14.35;6.88;;;;;;;9.72;76.52;100418.44;5045917;28;20036;-80
2024/04/05 04:43:22;;;;;;;18.50;6.50;;;;;;;10.06;75.98;100444.06;5049098;28;20063;-80
2024/04/05 04:45:48;;;;;;;21.92;6.93;;;;;;;10.20;76.38;100481.38;5049800;28;20131;-79
2024/04/05 04:48:13;;;;;;;15.23;5.68;;;;;;;10.21;76.76;100488.34;5048636;28;20029;-79
2024/04/05 04:50:38;;;;;;;15.77;5.45;;;;;;;10.20;73.43;100468.06;5050679;28;20138;-79
2024/04/05 04:53:04;;;;;;;10.60;3.70;;;;;;;10.41;71.84;100489.16;5050244;28;20059;-79
2024/04/05 04:55:29;;;;;;;9.20;4.38;;;;;;;10.80;69.96;100487.44;5050426;28;20033;-79
2024/04/05 04:57:55;;;;;;;8.88;3.97;;;;;;;10.53;69.63;100448.53;5062371;28;20550;-80
2024/04/05 05:00:20;;;;;;;11.50;3.63;;;;;;;11.33;68.30;100488.28;5049074;28;20028;-79
2024/04/05 05:02:45;;;;;;;12.50;3.92;;;;;;;11.35;67.90;100481.66;5049496;28;20099;-79
2024/04/05 05:05:11;;;;;;;10.52;3.40;;;;;;;11.18;68.08;100477.88;5049571;28;20025;-80
2024/04/05 05:07:38;;;;;;;8.65;3.10;;;;;;;11.32;66.97;100478.59;5049626;28;20070;-79
2024/04/05 05:10:06;;;;;;;8.40;3.10;;;;;;;11.61;65.88;100480.69;5049116;28;20028;-79
2024/04/05 05:12:31;;;;;;;9.55;3.40;;;;;;;11.48;66.41;100488.78;5046367;28;20064;-79
2024/04/05 05:14:57;;;;;;;5.80;2.95;;;;;;;11.22;67.28;100479.91;5048523;28;20115;-81
2024/04/05 05:17:22;;;;;;;4.85;3.08;;;;;;;11.19;67.88;100453.63;5049959;28;20486;-80
2024/04/05 05:19:49;;;;;;;6.63;3.00;;;;;;;11.04;70.57;100483.25;5046627;28;20649;-80
2024/04/05 05:22:14;;;;;;;5.80;2.85;;;;;;;11.27;68.79;100490.75;5046449;28;20048;-81
2024/04/05 05:24:39;;;;;;;7.00;3.28;;;;;;;11.79;67.12;100505.84;5049753;28;20029;-80
2024/04/05 05:27:05;;;;;;;8.15;3.40;;;;;;;11.83;66.40;100509.75;5049898;28;20612;-80
2024/04/05 05:29:30;;;;;;;7.47;3.40;;;;;;;11.89;66.10;100500.91;5049823;28;20025;-79
2024/04/05 05:31:56;;;;;;;8.90;4.38;;;;;;;12.11;64.68;100505.88;5049633;28;20500;-81
2024/04/05 05:34:21;;;;;;;7.10;3.53;;;;;;;11.90;62.68;100438.38;5051850;28;20021;-80
2024/04/05 05:36:46;;;;;;;7.93;3.15;;;;;;;12.62;62.24;100505.59;5049021;28;20501;-81
2024/04/05 05:39:13;;;;;;;9.32;3.70;;;;;;;12.80;62.18;100512.81;5047331;28;20607;-80
2024/04/05 05:41:38;;;;;;;6.65;3.13;;;;;;;12.67;61.95;100496.94;5048514;28;20055;-80
2024/04/05 05:44:04;;;;;;;6.68;3.42;;;;;;;12.93;62.82;100516.41;5047993;28;20822;-80
2024/04/05 05:46:30;;;;;;;5.97;3.05;;;;;;;12.64;64.35;100475.94;5049080;28;20060;-80
2024/04/05 05:48:55;;;;;;;6.07;3.00;;;;;;;12.90;62.75;100490.09;5047030;28;20086;-80
2024/04/05 05:51:21;;;;;;;8.52;3.42;;;;;;;13.13;62.81;100506.28;5046428;28;20704;-80
2024/04/05 05:53:46;;;;;;;5.63;3.00;;;;;;;13.22;61.60;100488.88;5048958;28;20125;-80
2024/04/05 05:56:12;;;;;;;6.20;3.45;;;;;;;13.50;59.73;100511.59;5048084;28;20029;-80
2024/04/05 05:58:39;;;;;;;5.10;2.38;;;;;;;13.45;60.04;100465.94;5049253;28;20090;-80
2024/04/05 06:01:07;;;;;;;6.30;2.53;;;;;;;13.77;58.92;100512.06;5049122;28;20457;-79
2024/04/05 06:03:33;;;;;;;7.65;4.00;;;;;;;13.91;57.40;100507.28;5049224;28;20025;-80
2024/04/05 06:06:02;;;;;;;7.70;4.00;;;;;;;13.94;58.55;100501.47;5048054;28;20017;-80
2024/04/05 06:08:28;;;;;;;9.02;4.07;;;;;;;14.26;59.47;100514.56;5050138;28;20033;-80
2024/04/05 06:10:56;;;;;;;18.00;9.98;;;;;;;14.61;57.43;100511.94;5049885;28;20087;-80
2024/04/05 06:13:23;;;;;;;19.02;11.68;;;;;;;14.61;59.61;100495.03;5048935;28;20402;-80
2024/04/05 06:15:57;;;;;;;26.65;13.23;;;;;;;14.68;56.00;100517.19;5049009;28;20032;-79
2024/04/05 06:18:25;;;;;;;5.95;3.45;;;;;;;14.65;54.98;100496.19;5049140;28;20129;-80
2024/04/05 06:20:57;;;;;;;5.80;2.50;;;;;;;14.67;55.36;100491.41;5048573;28;20032;-80
2024/04/05 06:23:24;;;;;;;11.25;3.17;;;;;;;14.80;56.44;100520.66;5049829;28;20033;-79
2024/04/05 06:25:59;;;;;;;10.25;4.10;;;;;;;15.14;56.04;100518.16;5050228;28;20112;-79
2024/04/05 06:28:26;;;;;;;5.95;2.40;;;;;;;15.28;55.25;100526.75;5061217;28;20024;-80
2024/04/05 06:30:52;;;;;;;11.50;3.10;;;;;;;15.71;55.59;100533.47;5068643;28;20055;-80
2024/04/05 06:33:18;;;;;;;21.20;11.57;;;;;;;15.82;53.01;100542.56;5049305;28;20033;-79
2024/04/05 06:35:44;;;;;;;4.22;2.03;;;;;;;15.51;53.93;100509.72;5048515;28;20045;-79
2024/04/05 06:38:09;;;;;;;4.78;2.67;;;;;;;15.85;55.90;100516.03;5049256;28;20032;-79
2024/04/05 06:40:36;;;;;;;6.25;2.30;;;;;;;16.23;53.86;100544.06;5049066;28;20093;-80
2024/04/05 06:43:06;;;;;;;5.78;2.42;;;;;;;16.32;53.44;100541.78;5048746;28;20489;-79
2024/04/05 06:45:32;;;;;;;6.88;2.72;;;;;;;16.60;54.34;100534.66;5048178;28;20025;-80
2024/04/05 06:47:58;;;;;;;4.18;2.15;;;;;;;16.80;52.19;100547.63;5044201;28;20455;-79
2024/04/05 06:50:26;;;;;;;9.00;2.72;;;;;;;16.90;52.64;100541.56;5030318;28;20613;-80
2024/04/05 06:52:58;;;;;;;;;;;;;;;16.94;52.62;100548.06;5048806;28;20045;-80
2024/04/05 06:55:24;;;;;;;7.45;2.72;;;;;;;16.99;52.35;100518.53;5048531;28;20385;-79
2024/04/05 06:57:50;;;;;;;5.78;2.30;;;;;;;17.32;50.83;100549.91;5048597;28;20056;-79
2024/04/05 07:00:16;;;;;;;7.20;2.20;;;;;;;17.15;51.59;100535.69;5048864;28;20033;-80
2024/04/05 07:02:42;;;;;;;5.35;2.53;;;;;;;17.25;52.63;100528.53;5059867;28;20055;-80
2024/04/05 07:05:08;;;;;;;4.47;2.10;;;;;;;17.58;51.21;100537.53;5057617;28;20029;-80
2024/04/05 07:07:34;;;;;;;9.43;2.20;;;;;;;17.76;48.59;100544.47;5047620;28;20037;-80
2024/04/05 07:09:59;;;;;;;5.13;1.90;;;;;;;17.85;49.90;100536.75;5035681;28;20037;-79
2024/04/05 07:12:24;;;;;;;5.18;1.80;;;;;;;17.90;50.64;100544.91;5043481;28;20078;-80
2024/04/05 07:14:50;;;;;;;7.28;1.83;;;;;;;18.53;49.75;100555.09;5048266;28;20032;-79
2024/04/05 07:17:15;;;;;;;11.32;2.45;;;;;;;18.72;47.17;100550.91;5048467;28;20107;-79
2024/04/05 07:19:41;;;;;;;5.05;1.60;;;;;;;18.85;44.86;100536.97;5047887;28;20037;-80
2024/04/05 07:22:09;;;;;;;7.63;1.67;;;;;;;19.05;45.61;100554.38;5048611;28;20029;-80
2024/04/05 07:24:34;;;;;;;4.68;1.58;;;;;;;19.14;45.38;100536.53;5046887;28;20033;-80
2024/04/05 07:27:00;;;;;;;4.88;1.50;;;;;;;19.33;45.87;100547.72;5048117;28;20036;-80
2024/04/05 07:29:25;;;;;;;6.88;1.77;;;;;;;19.76;44.13;100553.81;5047908;28;20520;-80
2024/04/05 07:31:51;;;;;;;3.90;1.30;;;;;;;19.81;43.99;100545.69;5048156;28;20510;-80
2024/04/05 07:34:16;;;;;;;6.05;1.63;;;;;;;19.89;45.00;100525.41;5047288;28;20090;-80
2024/04/05 07:36:41;;;;;;;4.97;1.80;;;;;;;19.94;44.01;100543.53;5047447;28;20025;-80
2024/04/05 07:39:08;;;;;;;9.80;1.50;;;;;;;20.26;43.93;100559.53;5048213;28;20082;-80
2024/04/05 07:41:34;;;;;;;7.13;1.50;;;;;;;20.45;44.04;100555.19;5047160;28;20074;-80
2024/04/05 07:44:02;;;;;;;3.75;1.20;;;;;;;20.43;42.79;100561.94;5047798;28;20028;-79
2024/04/05 07:46:27;;;;;;;3.55;1.10;;;;;;;20.60;42.05;100561.69;5046957;28;20063;-79
2024/04/05 07:48:53;;;;;;;4.20;1.60;;;;;;;21.07;40.83;100571.34;5047059;28;21401;-80
2024/04/05 07:51:18;;;;;;;4.18;1.48;;;;;;;21.10;40.51;100573.47;5047142;28;20454;-79
2024/04/05 07:53:47;;;;;;;3.95;1.20;;;;;;;20.64;39.78;100536.47;5047771;28;20028;-79
2024/04/05 07:56:12;;;;;;;4.80;1.30;;;;;;;21.33;40.53;100563.09;5047284;28;20115;-80
2024/04/05 07:58:38;;;;;;;3.80;1.30;;;;;;;21.61;40.46;100551.56;5046660;28;20021;-80
2024/04/05 08:01:05;;;;;;;5.53;1.30;;;;;;;21.65;39.53;100558.06;5046929;28;20020;-79
2024/04/05 08:03:31;;;;;;;6.40;1.45;;;;;;;21.61;39.11;100556.19;5049578;28;20435;-79
2024/04/05 08:05:56;;;;;;;3.97;1.10;;;;;;;21.48;38.99;100559.53;5051072;28;20036;-79
2024/04/05 08:08:22;;;;;;;3.75;1.10;;;;;;;21.39;40.01;100578.25;5051834;28;20032;-79
2024/04/05 08:10:47;;;;;;;5.40;1.13;;;;;;;20.98;39.09;100573.78;5051801;28;20108;-79
2024/04/05 08:13:12;;;;;;;4.40;1.17;;;;;;;21.22;40.60;100571.25;5051520;28;20478;-79
2024/04/05 08:15:38;;;;;;;5.38;0.90;;;;;;;21.51;38.11;100561.66;5051234;28;20106;-78
2024/04/05 08:18:04;;;;;;;1.92;0.50;;;;;;;21.42;36.72;100577.69;5052018;28;20029;-77
2024/04/05 08:20:29;;;;;;;2.10;0.63;;;;;;;21.49;38.02;100577.41;5051553;28;20033;-78
2024/04/05 08:22:54;;;;;;;3.00;0.98;;;;;;;21.24;36.02;100571.78;5053478;28;20028;-79
2024/04/05 08:25:20;;;;;;;3.45;0.70;;;;;;;21.39;37.25;100573.66;5051648;28;20025;-79
2024/04/05 08:27:49;;;;;;;2.88;1.05;;;;;;;21.60;37.30;100571.66;5051424;28;20139;-78
2024/04/05 08:30:18;;;;;;;2.88;0.90;;;;;;;21.42;36.65;100534.28;5050437;28;20073;-78
2024/04/05 08:32:43;;;;;;;2.53;0.90;;;;;;;21.52;36.92;100574.97;5050783;28;20029;-78
2024/04/05 08:35:09;;;;;;;1.48;0.70;;;;;;;21.69;38.37;100554.78;5050755;28;20059;-79
2024/04/05 08:37:36;;;;;;;3.28;0.70;;;;;;;21.76;35.58;100545.25;5050695;28;20029;-79
2024/04/05 08:40:03;;;;;;;2.30;0.50;;;;;;;21.66;35.16;100559.69;5050697;28;20438;-78
2024/04/05 08:42:32;;;;;;;2.22;0.40;;;;;;;21.66;36.38;100561.59;5050021;28;20029;-78
2024/04/05 08:44:58;;;;;;;2.47;0.50;;;;;;;21.72;36.61;100555.03;5048900;28;20090;-79
2024/04/05 08:47:25;;;;;;;4.88;0.80;;;;;;;21.70;36.24;100556.41;5049874;28;20041;-78
2024/04/05 08:49:52;;;;;;;1.17;0.60;;;;;;;21.83;38.19;100556.59;5049965;28;20021;-79
2024/04/05 08:52:17;;;;;;;3.03;0.93;;;;;;;21.87;37.93;100554.94;5049426;28;20037;-78
2024/04/05 08:54:43;;;;;;;1.85;0.80;;;;;;;21.74;36.50;100541.16;5049364;28;20025;-79
2024/04/05 08:57:09;;;;;;;2.15;0.80;;;;;;;21.67;37.06;100542.28;5049181;28;20029;-79
2024/04/05 08:59:36;;;;;;;2.25;0.90;;;;;;;21.52;36.10;100545.13;5050696;28;20029;-79
2024/04/05 09:02:03;;;;;;;3.13;0.50;;;;;;;21.43;35.45;100555.75;5050448;28;20031;-79
2024/04/05 09:04:29;;;;;;;5.22;0.70;;;;;;;21.54;36.88;100542.94;5050168;28;20032;-78
2024/04/05 09:06:55;;;;;;;5.35;0.88;;;;;;;21.52;38.45;100534.25;5049485;28;20523;-78
2024/04/05 09:09:29;;;;;;;3.63;1.02;;;;;;;21.56;37.53;100553.53;5050141;28;20090;-79
2024/04/05 09:12:03;;;;;;;4.10;0.90;;;;;;;21.67;36.59;100547.72;5050027;28;20087;-80
2024/04/05 09:14:36;;;;;;;2.83;1.00;;;;;;;21.71;38.67;100547.19;5047622;28;20410;-79
2024/04/05 09:17:03;;;;;;;7.30;1.13;;;;;;;21.72;37.29;100518.91;5049636;28;20548;-80
2024/04/05 09:19:29;;;;;;;3.35;0.77;;;;;;;21.46;36.84;100538.09;5050012;28;20068;-79
2024/04/05 09:21:54;;;;;;;3.42;0.70;;;;;;;21.47;36.64;100518.00;5050600;28;20124;-79
2024/04/05 09:24:20;;;;;;;2.10;0.80;;;;;;;21.64;37.00;100534.72;5049659;28;20402;-80
2024/04/05 09:26:45;;;;;;;2.70;0.98;;;;;;;21.78;36.76;100532.19;5050294;28;20032;-79
2024/04/05 09:29:13;;;;;;;1.42;0.57;;;;;;;21.84;35.34;100547.34;5049908;28;20032;-78
2024/04/05 09:31:38;;;;;;;;;;;;;;;21.91;35.80;100555.19;5049827;28;20064;-79
2024/04/05 09:34:09;;;;;;;6.53;1.43;;;;;;;22.03;35.96;100560.25;5049651;28;19916;-79
2024/04/05 09:36:36;;;;;;;4.38;0.93;;;;;;;21.97;36.51;100551.34;5049776;28;20305;-79
2024/04/05 09:39:05;;;;;;;3.73;1.20;;;;;;;21.93;36.48;100517.69;5049535;28;20024;-80
2024/04/05 09:41:33;;;;;;;4.25;1.10;;;;;;;22.27;35.91;100561.19;5063634;28;20262;-79
2024/04/05 09:43:59;;;;;;;;;;;;;;;22.46;34.85;100569.41;5069248;28;20546;-79
2024/04/05 09:46:26;;;;;;;3.05;0.80;;;;;;;22.55;34.06;100555.22;5050993;28;20447;-80
2024/04/05 09:48:54;;;;;;;2.37;0.70;;;;;;;22.61;34.44;100543.19;5048003;28;20033;-80
2024/04/05 09:51:24;;;;;;;19.20;2.13;;;;;;;22.62;35.11;100533.94;5048305;28;20131;-80
2024/04/05 09:53:52;;;;;;;1.90;1.08;;;;;;;23.13;35.03;100566.03;5049756;28;20391;-79
2024/04/05 09:56:18;;;;;;;2.40;1.02;;;;;;;23.06;33.29;100541.88;5049143;28;20025;-80
2024/04/05 09:58:47;;;;;;;0.95;0.45;;;;;;;23.24;33.47;100562.06;5049277;28;20543;-79
2024/04/05 10:01:15;;;;;;;2.05;0.50;;;;;;;23.24;32.79;100561.25;5047123;28;20474;-80
2024/04/05 10:03:42;;;;;;;0.82;0.50;;;;;;;23.44;32.36;100543.88;5049283;28;20048;-79
2024/04/05 10:06:11;;;;;;;2.38;0.70;;;;;;;23.36;32.54;100548.03;5048966;28;20040;-79
2024/04/05 10:08:38;;;;;;;1.77;0.57;;;;;;;23.37;31.27;100540.69;5048737;28;20410;-79
2024/04/05 10:11:13;;;;;;;2.55;0.57;;;;;;;23.32;34.44;100547.00;5048933;28;20140;-79
2024/04/05 10:13:39;;;;;;;3.15;0.93;;;;;;;22.82;34.45;100543.78;5049107;28;20051;-80
2024/04/05 10:16:05;;;;;;;1.85;0.90;;;;;;;22.69;34.61;100534.41;5048342;28;20490;-79
2024/04/05 10:18:39;;;;;;;1.92;0.50;;;;;;;22.80;34.02;100537.81;5048875;28;20033;-79
2024/04/05 10:21:10;;;;;;;3.38;0.73;;;;;;;23.04;33.16;100546.00;5049231;28;20033;-80
2024/04/05 10:23:37;;;;;;;3.38;0.60;;;;;;;22.86;32.26;100529.31;5049158;28;20108;-79
2024/04/05 10:26:03;;;;;;;3.67;0.60;;;;;;;22.91;32.08;100536.59;5048340;28;20032;-79
2024/04/05 10:28:32;;;;;;;2.05;0.60;;;;;;;22.99;33.59;100537.88;5048954;28;20108;-79
2024/04/05 10:31:01;;;;;;;5.55;1.40;;;;;;;22.99;33.84;100546.03;5048354;28;20491;-79
2024/04/05 10:33:26;;;;;;;4.00;0.70;;;;;;;23.15;34.04;100530.34;5048388;28;20100;-80
2024/04/05 10:35:57;;;;;;;2.58;0.73;;;;;;;23.12;33.78;100529.03;5048883;28;20112;-79
2024/04/05 10:38:23;;;;;;;1.60;0.70;;;;;;;23.05;33.53;100531.31;5048410;28;20039;-80
2024/04/05 10:40:58;;;;;;;2.22;0.70;;;;;;;23.07;33.71;100531.84;5048272;28;20029;-79
2024/04/05 10:43:23;;;;;;;3.25;0.70;;;;;;;22.84;32.64;100526.09;5047174;28;20021;-79
2024/04/05 10:45:53;;;;;;;1.27;0.50;;;;;;;23.19;33.08;100531.38;5048716;28;20190;-80
2024/04/05 10:48:19;;;;;;;2.33;0.65;;;;;;;23.05;33.75;100531.31;5047792;28;20056;-79
2024/04/05 10:50:44;;;;;;;2.17;0.90;;;;;;;23.03;35.35;100533.50;5048178;28;20112;-79
2024/04/05 10:53:15;;;;;;;3.15;0.90;;;;;;;22.60;34.75;100530.72;5048324;28;20410;-80
2024/04/05 10:55:41;;;;;;;1.65;0.80;;;;;;;22.67;36.85;100536.59;5048045;28;20090;-80
2024/04/05 10:58:07;;;;;;;2.15;0.80;;;;;;;22.40;34.52;100516.22;5048256;28;20090;-80
2024/04/05 11:00:34;;;;;;;1.95;0.80;;;;;;;22.54;35.72;100542.72;5047569;28;20029;-80
2024/04/05 11:02:59;;;;;;;2.13;0.90;;;;;;;22.46;35.95;100531.38;5047727;28;20031;-80
2024/04/05 11:05:25;;;;;;;4.80;0.90;;;;;;;22.68;36.00;100527.34;5047269;28;20107;-80
2024/04/05 11:08:01;;;;;;;4.07;1.58;;;;;;;22.70;35.44;100532.47;5047582;28;20545;-80
2024/04/05 11:10:36;;;;;;;4.18;1.10;;;;;;;22.77;35.11;100531.03;5046061;28;20129;-80
2024/04/05 11:13:20;;;;;;;2.45;1.00;;;;;;;22.63;36.54;100481.19;5046697;28;20035;-80
2024/04/05 11:15:47;;;;;;;2.92;0.90;;;;;;;22.64;35.26;100507.28;5044791;28;20033;-79
2024/04/05 11:18:13;;;;;;;4.55;1.10;;;;;;;22.43;36.42;100502.06;5045973;28;20036;-80
2024/04/05 11:20:42;;;;;;;2.42;0.80;;;;;;;22.96;36.96;100511.25;5047417;28;20036;-79